sensor_id;sensor_type;location;lat;lon;timestamp;P1;durP1;ratioP1;P2;durP2;ratioP2
19189;SDS011;9727;50.200;19.038;2023-04-25T00:00:47;7.83;;;6.43;;
19189;SDS011;9727;50.200;19.038;2023-04-25T00:03:13;11.33;;;6.80;;
19189;SDS011;9727;50.200;19.038;2023-04-25T00:05:40;9.63;;;7.23;;
19189;SDS011;9727;50.200;19.038;2023-04-25T00:08:09;9.60;;;7.70;;
19189;SDS011;9727;50.200;19.038;2023-04-25T00:10:36;10.93;;;8.60;;
19189;SDS011;9727;50.200;19.038;2023-04-25T00:13:02;9.83;;;8.73;;
19189;SDS011;9727;50.200;19.038;2023-04-25T00:15:29;11.87;;;8.90;;
19189;SDS011;9727;50.200;19.038;2023-04-25T00:17:58;10.23;;;8.53;;
19189;SDS011;9727;50.200;19.038;2023-04-25T00:20:24;9.77;;;8.30;;
19189;SDS011;9727;50.200;19.038;2023-04-25T00:22:51;11.53;;;9.17;;
19189;SDS011;9727;50.200;19.038;2023-04-25T00:25:21;10.20;;;8.23;;
19189;SDS011;9727;50.200;19.038;2023-04-25T00:27:48;16.43;;;10.40;;
19189;SDS011;9727;50.200;19.038;2023-04-25T00:30:15;13.43;;;9.90;;
19189;SDS011;9727;50.200;19.038;2023-04-25T00:32:41;13.70;;;10.27;;
19189;SDS011;9727;50.200;19.038;2023-04-25T00:35:10;14.23;;;11.90;;
19189;SDS011;9727;50.200;19.038;2023-04-25T00:37:36;17.27;;;12.33;;
19189;SDS011;9727;50.200;19.038;2023-04-25T00:40:04;15.60;;;12.00;;
19189;SDS011;9727;50.200;19.038;2023-04-25T00:42:32;20.57;;;14.07;;
19189;SDS011;9727;50.200;19.038;2023-04-25T00:44:59;18.57;;;14.93;;
19189;SDS011;9727;50.200;19.038;2023-04-25T00:47:25;21.03;;;16.10;;
19189;SDS011;9727;50.200;19.038;2023-04-25T00:49:52;21.70;;;16.50;;
19189;SDS011;9727;50.200;19.038;2023-04-25T00:52:20;25.23;;;17.07;;
19189;SDS011;9727;50.200;19.038;2023-04-25T00:54:47;23.73;;;16.83;;
19189;SDS011;9727;50.200;19.038;2023-04-25T00:57:13;21.43;;;16.47;;
19189;SDS011;9727;50.200;19.038;2023-04-25T00:59:40;22.67;;;16.43;;
19189;SDS011;9727;50.200;19.038;2023-04-25T01:02:09;21.30;;;16.10;;
19189;SDS011;9727;50.200;19.038;2023-04-25T01:04:36;22.83;;;16.17;;
19189;SDS011;9727;50.200;19.038;2023-04-25T01:07:02;21.60;;;15.27;;
19189;SDS011;9727;50.200;19.038;2023-04-25T01:09:31;20.17;;;15.33;;
19189;SDS011;9727;50.200;19.038;2023-04-25T01:11:58;22.20;;;16.30;;
19189;SDS011;9727;50.200;19.038;2023-04-25T01:14:25;21.30;;;16.67;;
19189;SDS011;9727;50.200;19.038;2023-04-25T01:16:51;22.03;;;16.77;;
19189;SDS011;9727;50.200;19.038;2023-04-25T01:19:19;20.97;;;16.40;;
19189;SDS011;9727;50.200;19.038;2023-04-25T01:21:50;20.60;;;15.67;;
19189;SDS011;9727;50.200;19.038;2023-04-25T01:24:17;21.80;;;16.77;;
19189;SDS011;9727;50.200;19.038;2023-04-25T01:26:44;19.73;;;15.80;;
19189;SDS011;9727;50.200;19.038;2023-04-25T01:29:15;21.07;;;15.53;;
19189;SDS011;9727;50.200;19.038;2023-04-25T01:31:41;19.93;;;13.73;;
19189;SDS011;9727;50.200;19.038;2023-04-25T01:34:08;19.83;;;13.83;;
19189;SDS011;9727;50.200;19.038;2023-04-25T01:36:35;19.13;;;13.10;;
19189;SDS011;9727;50.200;19.038;2023-04-25T01:39:03;15.77;;;11.50;;
19189;SDS011;9727;50.200;19.038;2023-04-25T01:41:30;16.73;;;11.33;;
19189;SDS011;9727;50.200;19.038;2023-04-25T01:43:57;14.40;;;10.23;;
19189;SDS011;9727;50.200;19.038;2023-04-25T01:46:24;11.83;;;9.10;;
19189;SDS011;9727;50.200;19.038;2023-04-25T01:48:50;12.90;;;9.57;;
19189;SDS011;9727;50.200;19.038;2023-04-25T01:51:17;14.80;;;9.10;;
19189;SDS011;9727;50.200;19.038;2023-04-25T01:53:54;11.57;;;8.30;;
19189;SDS011;9727;50.200;19.038;2023-04-25T01:56:22;11.97;;;7.33;;
19189;SDS011;9727;50.200;19.038;2023-04-25T01:58:49;9.67;;;7.30;;
19189;SDS011;9727;50.200;19.038;2023-04-25T02:01:17;9.13;;;7.10;;
19189;SDS011;9727;50.200;19.038;2023-04-25T02:03:48;9.70;;;7.57;;
19189;SDS011;9727;50.200;19.038;2023-04-25T02:06:14;9.10;;;6.97;;
19189;SDS011;9727;50.200;19.038;2023-04-25T02:08:41;11.07;;;6.87;;
19189;SDS011;9727;50.200;19.038;2023-04-25T02:11:07;12.07;;;7.50;;
19189;SDS011;9727;50.200;19.038;2023-04-25T02:13:35;11.87;;;7.80;;
19189;SDS011;9727;50.200;19.038;2023-04-25T02:16:02;9.30;;;7.80;;
19189;SDS011;9727;50.200;19.038;2023-04-25T02:18:28;8.70;;;7.40;;
19189;SDS011;9727;50.200;19.038;2023-04-25T02:20:56;10.27;;;6.50;;
19189;SDS011;9727;50.200;19.038;2023-04-25T02:23:23;12.30;;;7.10;;
19189;SDS011;9727;50.200;19.038;2023-04-25T02:25:49;8.77;;;6.30;;
19189;SDS011;9727;50.200;19.038;2023-04-25T02:28:16;10.70;;;6.73;;
19189;SDS011;9727;50.200;19.038;2023-04-25T02:30:44;8.03;;;5.63;;
19189;SDS011;9727;50.200;19.038;2023-04-25T02:33:11;6.43;;;5.27;;
19189;SDS011;9727;50.200;19.038;2023-04-25T02:35:37;7.40;;;5.87;;
19189;SDS011;9727;50.200;19.038;2023-04-25T02:38:04;9.37;;;5.20;;
19189;SDS011;9727;50.200;19.038;2023-04-25T02:40:30;7.10;;;5.43;;
19189;SDS011;9727;50.200;19.038;2023-04-25T02:42:57;8.47;;;5.23;;
19189;SDS011;9727;50.200;19.038;2023-04-25T02:45:24;7.50;;;4.97;;
19189;SDS011;9727;50.200;19.038;2023-04-25T02:47:52;7.70;;;5.60;;
19189;SDS011;9727;50.200;19.038;2023-04-25T02:50:21;6.47;;;5.27;;
19189;SDS011;9727;50.200;19.038;2023-04-25T02:52:48;7.27;;;6.00;;
19189;SDS011;9727;50.200;19.038;2023-04-25T02:55:14;7.93;;;5.97;;
19189;SDS011;9727;50.200;19.038;2023-04-25T02:57:41;7.13;;;5.80;;
19189;SDS011;9727;50.200;19.038;2023-04-25T03:00:08;9.30;;;6.23;;
19189;SDS011;9727;50.200;19.038;2023-04-25T03:02:36;9.73;;;6.57;;
19189;SDS011;9727;50.200;19.038;2023-04-25T03:05:05;7.60;;;6.43;;
19189;SDS011;9727;50.200;19.038;2023-04-25T03:07:32;7.90;;;6.30;;
19189;SDS011;9727;50.200;19.038;2023-04-25T03:10:05;8.17;;;6.30;;
19189;SDS011;9727;50.200;19.038;2023-04-25T03:12:31;8.57;;;6.73;;
19189;SDS011;9727;50.200;19.038;2023-04-25T03:14:58;10.23;;;6.27;;
19189;SDS011;9727;50.200;19.038;2023-04-25T03:17:25;8.90;;;6.13;;
19189;SDS011;9727;50.200;19.038;2023-04-25T03:19:51;8.87;;;6.37;;
19189;SDS011;9727;50.200;19.038;2023-04-25T03:22:23;9.40;;;5.97;;
19189;SDS011;9727;50.200;19.038;2023-04-25T03:24:49;9.77;;;6.43;;
19189;SDS011;9727;50.200;19.038;2023-04-25T03:27:16;8.43;;;6.60;;
19189;SDS011;9727;50.200;19.038;2023-04-25T03:29:43;6.37;;;5.53;;
19189;SDS011;9727;50.200;19.038;2023-04-25T03:32:09;8.33;;;5.73;;
19189;SDS011;9727;50.200;19.038;2023-04-25T03:34:36;7.97;;;5.70;;
19189;SDS011;9727;50.200;19.038;2023-04-25T03:37:02;8.53;;;6.10;;
19189;SDS011;9727;50.200;19.038;2023-04-25T03:39:30;10.27;;;5.70;;
19189;SDS011;9727;50.200;19.038;2023-04-25T03:41:57;7.33;;;5.27;;
19189;SDS011;9727;50.200;19.038;2023-04-25T03:44:23;7.17;;;5.57;;
19189;SDS011;9727;50.200;19.038;2023-04-25T03:46:50;7.60;;;5.33;;
19189;SDS011;9727;50.200;19.038;2023-04-25T03:49:17;7.07;;;4.90;;
19189;SDS011;9727;50.200;19.038;2023-04-25T03:51:45;7.17;;;5.13;;
19189;SDS011;9727;50.200;19.038;2023-04-25T03:54:13;7.53;;;5.10;;
19189;SDS011;9727;50.200;19.038;2023-04-25T03:56:41;6.30;;;4.77;;
19189;SDS011;9727;50.200;19.038;2023-04-25T03:59:07;9.67;;;5.30;;
19189;SDS011;9727;50.200;19.038;2023-04-25T04:01:34;6.70;;;5.17;;
19189;SDS011;9727;50.200;19.038;2023-04-25T04:04:01;6.60;;;4.73;;
19189;SDS011;9727;50.200;19.038;2023-04-25T04:06:30;5.07;;;4.57;;
19189;SDS011;9727;50.200;19.038;2023-04-25T04:08:57;5.77;;;4.67;;
19189;SDS011;9727;50.200;19.038;2023-04-25T04:11:23;8.13;;;4.73;;
19189;SDS011;9727;50.200;19.038;2023-04-25T04:13:51;5.87;;;4.40;;
19189;SDS011;9727;50.200;19.038;2023-04-25T04:16:21;6.57;;;4.97;;
19189;SDS011;9727;50.200;19.038;2023-04-25T04:18:47;11.03;;;4.87;;
19189;SDS011;9727;50.200;19.038;2023-04-25T04:21:14;6.17;;;4.70;;
19189;SDS011;9727;50.200;19.038;2023-04-25T04:23:41;8.13;;;4.20;;
19189;SDS011;9727;50.200;19.038;2023-04-25T04:26:07;5.97;;;4.03;;
19189;SDS011;9727;50.200;19.038;2023-04-25T04:28:34;9.30;;;4.03;;
19189;SDS011;9727;50.200;19.038;2023-04-25T04:31:02;5.27;;;4.40;;
19189;SDS011;9727;50.200;19.038;2023-04-25T04:33:29;7.73;;;4.60;;
19189;SDS011;9727;50.200;19.038;2023-04-25T04:35:56;4.37;;;3.97;;
19189;SDS011;9727;50.200;19.038;2023-04-25T04:38:22;5.30;;;4.00;;
19189;SDS011;9727;50.200;19.038;2023-04-25T04:40:50;4.50;;;3.87;;
19189;SDS011;9727;50.200;19.038;2023-04-25T04:43:17;4.50;;;3.63;;
19189;SDS011;9727;50.200;19.038;2023-04-25T04:45:44;5.00;;;3.93;;
19189;SDS011;9727;50.200;19.038;2023-04-25T04:48:12;5.07;;;3.57;;
19189;SDS011;9727;50.200;19.038;2023-04-25T04:50:39;4.00;;;3.50;;
19189;SDS011;9727;50.200;19.038;2023-04-25T04:53:06;5.07;;;3.90;;
19189;SDS011;9727;50.200;19.038;2023-04-25T04:55:33;8.17;;;3.93;;
19189;SDS011;9727;50.200;19.038;2023-04-25T04:58:00;6.53;;;3.73;;
19189;SDS011;9727;50.200;19.038;2023-04-25T05:00:26;6.60;;;4.23;;
19189;SDS011;9727;50.200;19.038;2023-04-25T05:02:54;7.13;;;3.77;;
19189;SDS011;9727;50.200;19.038;2023-04-25T05:05:22;3.90;;;3.47;;
19189;SDS011;9727;50.200;19.038;2023-04-25T05:07:49;7.73;;;3.63;;
19189;SDS011;9727;50.200;19.038;2023-04-25T05:10:16;5.37;;;4.00;;
19189;SDS011;9727;50.200;19.038;2023-04-25T05:12:44;5.37;;;3.63;;
19189;SDS011;9727;50.200;19.038;2023-04-25T05:15:10;5.77;;;4.10;;
19189;SDS011;9727;50.200;19.038;2023-04-25T05:17:37;6.10;;;4.00;;
19189;SDS011;9727;50.200;19.038;2023-04-25T05:20:05;5.30;;;4.20;;
19189;SDS011;9727;50.200;19.038;2023-04-25T05:22:33;5.23;;;4.40;;
19189;SDS011;9727;50.200;19.038;2023-04-25T05:24:59;5.47;;;3.90;;
19189;SDS011;9727;50.200;19.038;2023-04-25T05:27:26;5.33;;;3.70;;
19189;SDS011;9727;50.200;19.038;2023-04-25T05:29:52;5.23;;;4.20;;
19189;SDS011;9727;50.200;19.038;2023-04-25T05:32:19;10.37;;;4.33;;
19189;SDS011;9727;50.200;19.038;2023-04-25T05:34:49;8.20;;;4.40;;
19189;SDS011;9727;50.200;19.038;2023-04-25T05:37:16;6.57;;;4.20;;
19189;SDS011;9727;50.200;19.038;2023-04-25T05:39:44;5.93;;;4.10;;
19189;SDS011;9727;50.200;19.038;2023-04-25T05:42:11;5.27;;;4.30;;
19189;SDS011;9727;50.200;19.038;2023-04-25T05:44:38;6.07;;;4.40;;
19189;SDS011;9727;50.200;19.038;2023-04-25T05:47:04;6.93;;;4.53;;
19189;SDS011;9727;50.200;19.038;2023-04-25T05:49:31;6.90;;;4.17;;
19189;SDS011;9727;50.200;19.038;2023-04-25T05:51:57;4.70;;;3.80;;
19189;SDS011;9727;50.200;19.038;2023-04-25T05:54:24;5.03;;;4.00;;
19189;SDS011;9727;50.200;19.038;2023-04-25T05:56:52;5.50;;;3.87;;
19189;SDS011;9727;50.200;19.038;2023-04-25T05:59:19;5.07;;;3.73;;
19189;SDS011;9727;50.200;19.038;2023-04-25T06:01:49;5.60;;;3.53;;
19189;SDS011;9727;50.200;19.038;2023-04-25T06:04:16;5.60;;;3.60;;
19189;SDS011;9727;50.200;19.038;2023-04-25T06:06:45;5.40;;;3.90;;
19189;SDS011;9727;50.200;19.038;2023-04-25T06:09:12;5.20;;;4.10;;
19189;SDS011;9727;50.200;19.038;2023-04-25T06:11:39;8.23;;;4.23;;
19189;SDS011;9727;50.200;19.038;2023-04-25T06:14:09;6.57;;;4.20;;
19189;SDS011;9727;50.200;19.038;2023-04-25T06:16:36;7.03;;;3.90;;
19189;SDS011;9727;50.200;19.038;2023-04-25T06:19:03;6.40;;;4.20;;
19189;SDS011;9727;50.200;19.038;2023-04-25T06:24:16;7.23;;;4.57;;
19189;SDS011;9727;50.200;19.038;2023-04-25T06:26:42;6.70;;;4.43;;
19189;SDS011;9727;50.200;19.038;2023-04-25T06:29:10;5.97;;;4.17;;
19189;SDS011;9727;50.200;19.038;2023-04-25T06:31:37;5.60;;;4.27;;
19189;SDS011;9727;50.200;19.038;2023-04-25T06:34:03;6.60;;;4.27;;
19189;SDS011;9727;50.200;19.038;2023-04-25T06:36:30;6.30;;;4.43;;
19189;SDS011;9727;50.200;19.038;2023-04-25T06:38:56;5.67;;;4.30;;
19189;SDS011;9727;50.200;19.038;2023-04-25T06:41:23;5.23;;;4.30;;
19189;SDS011;9727;50.200;19.038;2023-04-25T06:43:50;5.47;;;3.90;;
19189;SDS011;9727;50.200;19.038;2023-04-25T06:46:18;6.97;;;4.53;;
19189;SDS011;9727;50.200;19.038;2023-04-25T06:48:45;4.87;;;3.93;;
19189;SDS011;9727;50.200;19.038;2023-04-25T06:51:13;8.07;;;4.00;;
19189;SDS011;9727;50.200;19.038;2023-04-25T06:53:39;6.27;;;4.20;;
19189;SDS011;9727;50.200;19.038;2023-04-25T06:56:07;6.43;;;3.97;;
19189;SDS011;9727;50.200;19.038;2023-04-25T06:58:33;6.77;;;4.20;;
19189;SDS011;9727;50.200;19.038;2023-04-25T07:01:00;8.53;;;4.57;;
19189;SDS011;9727;50.200;19.038;2023-04-25T07:03:28;5.03;;;4.07;;
19189;SDS011;9727;50.200;19.038;2023-04-25T07:05:55;7.17;;;4.20;;
19189;SDS011;9727;50.200;19.038;2023-04-25T07:08:21;6.50;;;4.40;;
19189;SDS011;9727;50.200;19.038;2023-04-25T07:10:57;5.57;;;3.77;;
19189;SDS011;9727;50.200;19.038;2023-04-25T07:13:24;6.73;;;4.30;;
19189;SDS011;9727;50.200;19.038;2023-04-25T07:15:50;6.57;;;4.50;;
19189;SDS011;9727;50.200;19.038;2023-04-25T07:18:17;6.03;;;4.47;;
19189;SDS011;9727;50.200;19.038;2023-04-25T07:20:45;6.07;;;4.57;;
19189;SDS011;9727;50.200;19.038;2023-04-25T07:23:13;8.77;;;4.63;;
19189;SDS011;9727;50.200;19.038;2023-04-25T07:25:40;5.23;;;4.00;;
19189;SDS011;9727;50.200;19.038;2023-04-25T07:28:06;6.67;;;4.43;;
19189;SDS011;9727;50.200;19.038;2023-04-25T07:30:45;5.10;;;4.47;;
19189;SDS011;9727;50.200;19.038;2023-04-25T07:33:13;5.93;;;4.50;;
19189;SDS011;9727;50.200;19.038;2023-04-25T07:35:40;6.60;;;4.23;;
19189;SDS011;9727;50.200;19.038;2023-04-25T07:38:08;6.53;;;4.67;;
19189;SDS011;9727;50.200;19.038;2023-04-25T07:40:35;6.60;;;4.37;;
19189;SDS011;9727;50.200;19.038;2023-04-25T07:43:02;9.07;;;4.60;;
19189;SDS011;9727;50.200;19.038;2023-04-25T07:45:29;5.30;;;4.10;;
19189;SDS011;9727;50.200;19.038;2023-04-25T07:47:55;7.93;;;4.80;;
19189;SDS011;9727;50.200;19.038;2023-04-25T07:50:31;5.77;;;4.20;;
19189;SDS011;9727;50.200;19.038;2023-04-25T07:52:58;6.17;;;4.50;;
19189;SDS011;9727;50.200;19.038;2023-04-25T07:55:26;7.13;;;4.73;;
19189;SDS011;9727;50.200;19.038;2023-04-25T07:57:53;7.13;;;4.63;;
19189;SDS011;9727;50.200;19.038;2023-04-25T08:00:20;5.17;;;4.10;;
19189;SDS011;9727;50.200;19.038;2023-04-25T08:02:49;6.33;;;4.43;;
19189;SDS011;9727;50.200;19.038;2023-04-25T08:05:16;5.33;;;4.00;;
19189;SDS011;9727;50.200;19.038;2023-04-25T08:07:45;7.53;;;4.53;;
19189;SDS011;9727;50.200;19.038;2023-04-25T08:10:15;6.77;;;4.80;;
19189;SDS011;9727;50.200;19.038;2023-04-25T08:12:43;6.20;;;4.53;;
19189;SDS011;9727;50.200;19.038;2023-04-25T08:15:10;7.17;;;5.03;;
19189;SDS011;9727;50.200;19.038;2023-04-25T08:17:38;5.53;;;4.47;;
19189;SDS011;9727;50.200;19.038;2023-04-25T08:20:06;7.23;;;5.37;;
19189;SDS011;9727;50.200;19.038;2023-04-25T08:22:34;6.23;;;4.53;;
19189;SDS011;9727;50.200;19.038;2023-04-25T08:25:00;5.60;;;4.53;;
19189;SDS011;9727;50.200;19.038;2023-04-25T08:27:27;7.63;;;4.80;;
19189;SDS011;9727;50.200;19.038;2023-04-25T08:29:55;5.83;;;4.57;;
19189;SDS011;9727;50.200;19.038;2023-04-25T08:32:23;6.27;;;4.40;;
19189;SDS011;9727;50.200;19.038;2023-04-25T08:34:50;7.00;;;4.50;;
19189;SDS011;9727;50.200;19.038;2023-04-25T08:37:19;5.57;;;4.23;;
19189;SDS011;9727;50.200;19.038;2023-04-25T08:39:45;6.77;;;4.50;;
19189;SDS011;9727;50.200;19.038;2023-04-25T08:42:13;6.93;;;4.40;;
19189;SDS011;9727;50.200;19.038;2023-04-25T08:44:41;5.53;;;3.93;;
19189;SDS011;9727;50.200;19.038;2023-04-25T08:47:09;6.70;;;4.20;;
19189;SDS011;9727;50.200;19.038;2023-04-25T08:49:35;4.40;;;3.73;;
19189;SDS011;9727;50.200;19.038;2023-04-25T08:52:03;7.00;;;4.07;;
19189;SDS011;9727;50.200;19.038;2023-04-25T08:54:31;5.97;;;4.73;;
19189;SDS011;9727;50.200;19.038;2023-04-25T08:57:00;6.63;;;3.87;;
19189;SDS011;9727;50.200;19.038;2023-04-25T08:59:31;5.00;;;3.60;;
19189;SDS011;9727;50.200;19.038;2023-04-25T09:01:58;8.13;;;3.40;;
19189;SDS011;9727;50.200;19.038;2023-04-25T09:04:26;8.40;;;3.97;;
19189;SDS011;9727;50.200;19.038;2023-04-25T09:06:53;9.47;;;4.00;;
19189;SDS011;9727;50.200;19.038;2023-04-25T09:09:19;5.43;;;3.93;;
19189;SDS011;9727;50.200;19.038;2023-04-25T09:11:49;9.30;;;4.20;;
19189;SDS011;9727;50.200;19.038;2023-04-25T09:14:16;4.30;;;3.50;;
19189;SDS011;9727;50.200;19.038;2023-04-25T09:19:38;6.57;;;3.80;;
19189;SDS011;9727;50.200;19.038;2023-04-25T09:22:06;6.03;;;3.57;;
19189;SDS011;9727;50.200;19.038;2023-04-25T09:24:33;5.80;;;4.10;;
19189;SDS011;9727;50.200;19.038;2023-04-25T09:27:05;5.40;;;3.80;;
19189;SDS011;9727;50.200;19.038;2023-04-25T09:29:32;8.97;;;3.80;;
19189;SDS011;9727;50.200;19.038;2023-04-25T09:32:13;4.50;;;3.47;;
19189;SDS011;9727;50.200;19.038;2023-04-25T09:34:42;4.97;;;3.40;;
19189;SDS011;9727;50.200;19.038;2023-04-25T09:37:09;4.97;;;3.73;;
19189;SDS011;9727;50.200;19.038;2023-04-25T09:39:36;5.80;;;3.67;;
19189;SDS011;9727;50.200;19.038;2023-04-25T09:42:03;5.07;;;3.70;;
19189;SDS011;9727;50.200;19.038;2023-04-25T09:44:31;5.50;;;3.80;;
19189;SDS011;9727;50.200;19.038;2023-04-25T09:46:57;4.20;;;3.53;;
19189;SDS011;9727;50.200;19.038;2023-04-25T09:49:24;4.40;;;3.50;;
19189;SDS011;9727;50.200;19.038;2023-04-25T09:54:37;4.73;;;3.57;;
19189;SDS011;9727;50.200;19.038;2023-04-25T09:57:21;6.80;;;3.50;;
19189;SDS011;9727;50.200;19.038;2023-04-25T09:59:48;4.83;;;3.60;;
19189;SDS011;9727;50.200;19.038;2023-04-25T10:02:16;4.03;;;3.27;;
19189;SDS011;9727;50.200;19.038;2023-04-25T10:04:45;5.20;;;3.37;;
19189;SDS011;9727;50.200;19.038;2023-04-25T10:07:14;6.20;;;3.43;;
19189;SDS011;9727;50.200;19.038;2023-04-25T10:09:42;4.43;;;3.57;;
19189;SDS011;9727;50.200;19.038;2023-04-25T10:12:10;7.57;;;3.50;;
19189;SDS011;9727;50.200;19.038;2023-04-25T10:14:37;5.97;;;3.57;;
19189;SDS011;9727;50.200;19.038;2023-04-25T10:17:05;4.27;;;3.37;;
19189;SDS011;9727;50.200;19.038;2023-04-25T10:19:33;6.00;;;3.07;;
19189;SDS011;9727;50.200;19.038;2023-04-25T10:22:04;5.40;;;3.47;;
19189;SDS011;9727;50.200;19.038;2023-04-25T10:24:32;4.43;;;3.10;;
19189;SDS011;9727;50.200;19.038;2023-04-25T10:27:03;3.93;;;2.70;;
19189;SDS011;9727;50.200;19.038;2023-04-25T10:29:33;5.97;;;2.50;;
19189;SDS011;9727;50.200;19.038;2023-04-25T10:32:08;5.10;;;2.73;;
19189;SDS011;9727;50.200;19.038;2023-04-25T10:34:39;4.40;;;2.70;;
19189;SDS011;9727;50.200;19.038;2023-04-25T10:37:08;2.77;;;2.10;;
19189;SDS011;9727;50.200;19.038;2023-04-25T10:39:35;2.90;;;2.47;;
19189;SDS011;9727;50.200;19.038;2023-04-25T10:42:03;4.17;;;2.10;;
19189;SDS011;9727;50.200;19.038;2023-04-25T10:44:39;2.03;;;1.83;;
19189;SDS011;9727;50.200;19.038;2023-04-25T10:47:14;2.83;;;2.20;;
19189;SDS011;9727;50.200;19.038;2023-04-25T10:50:04;4.53;;;2.63;;
19189;SDS011;9727;50.200;19.038;2023-04-25T10:52:32;3.43;;;2.30;;
19189;SDS011;9727;50.200;19.038;2023-04-25T10:54:59;3.43;;;2.40;;
19189;SDS011;9727;50.200;19.038;2023-04-25T10:57:31;4.00;;;2.77;;
19189;SDS011;9727;50.200;19.038;2023-04-25T11:00:05;3.13;;;2.47;;
19189;SDS011;9727;50.200;19.038;2023-04-25T11:02:42;5.03;;;2.73;;
19189;SDS011;9727;50.200;19.038;2023-04-25T11:05:10;4.57;;;2.83;;
19189;SDS011;9727;50.200;19.038;2023-04-25T11:07:38;3.90;;;2.83;;
19189;SDS011;9727;50.200;19.038;2023-04-25T11:10:08;3.20;;;2.53;;
19189;SDS011;9727;50.200;19.038;2023-04-25T11:12:36;3.80;;;2.97;;
19189;SDS011;9727;50.200;19.038;2023-04-25T11:15:03;3.10;;;2.77;;
19189;SDS011;9727;50.200;19.038;2023-04-25T11:17:30;5.73;;;2.87;;
19189;SDS011;9727;50.200;19.038;2023-04-25T11:19:58;3.70;;;2.70;;
19189;SDS011;9727;50.200;19.038;2023-04-25T11:22:26;4.20;;;2.60;;
19189;SDS011;9727;50.200;19.038;2023-04-25T11:24:52;2.57;;;2.20;;
19189;SDS011;9727;50.200;19.038;2023-04-25T11:27:22;5.20;;;2.57;;
19189;SDS011;9727;50.200;19.038;2023-04-25T11:29:51;4.63;;;2.87;;
19189;SDS011;9727;50.200;19.038;2023-04-25T11:32:17;3.97;;;2.37;;
19189;SDS011;9727;50.200;19.038;2023-04-25T11:34:46;7.47;;;2.90;;
19189;SDS011;9727;50.200;19.038;2023-04-25T11:37:13;5.93;;;2.20;;
19189;SDS011;9727;50.200;19.038;2023-04-25T11:39:42;3.27;;;2.40;;
19189;SDS011;9727;50.200;19.038;2023-04-25T11:42:10;3.00;;;2.00;;
19189;SDS011;9727;50.200;19.038;2023-04-25T11:44:37;5.97;;;2.50;;
19189;SDS011;9727;50.200;19.038;2023-04-25T11:47:05;6.37;;;2.50;;
19189;SDS011;9727;50.200;19.038;2023-04-25T11:49:32;3.50;;;2.10;;
19189;SDS011;9727;50.200;19.038;2023-04-25T11:52:01;3.90;;;2.30;;
19189;SDS011;9727;50.200;19.038;2023-04-25T11:54:28;3.67;;;2.23;;
19189;SDS011;9727;50.200;19.038;2023-04-25T11:56:55;3.63;;;2.57;;
19189;SDS011;9727;50.200;19.038;2023-04-25T11:59:23;4.73;;;2.50;;
19189;SDS011;9727;50.200;19.038;2023-04-25T12:01:50;4.67;;;2.60;;
19189;SDS011;9727;50.200;19.038;2023-04-25T12:04:21;3.70;;;2.47;;
19189;SDS011;9727;50.200;19.038;2023-04-25T12:06:48;4.33;;;2.33;;
19189;SDS011;9727;50.200;19.038;2023-04-25T12:09:16;3.57;;;2.30;;
19189;SDS011;9727;50.200;19.038;2023-04-25T12:11:52;5.47;;;2.63;;
19189;SDS011;9727;50.200;19.038;2023-04-25T12:14:22;5.47;;;2.40;;
19189;SDS011;9727;50.200;19.038;2023-04-25T12:16:50;3.03;;;2.40;;
19189;SDS011;9727;50.200;19.038;2023-04-25T12:19:19;5.53;;;2.33;;
19189;SDS011;9727;50.200;19.038;2023-04-25T12:21:49;4.13;;;2.70;;
19189;SDS011;9727;50.200;19.038;2023-04-25T12:24:17;3.60;;;2.63;;
19189;SDS011;9727;50.200;19.038;2023-04-25T12:26:51;4.23;;;2.30;;
19189;SDS011;9727;50.200;19.038;2023-04-25T12:29:19;4.27;;;2.67;;
19189;SDS011;9727;50.200;19.038;2023-04-25T12:31:50;8.47;;;3.00;;
19189;SDS011;9727;50.200;19.038;2023-04-25T12:34:17;3.93;;;2.60;;
19189;SDS011;9727;50.200;19.038;2023-04-25T12:36:49;2.83;;;2.50;;
19189;SDS011;9727;50.200;19.038;2023-04-25T12:39:16;4.60;;;2.97;;
19189;SDS011;9727;50.200;19.038;2023-04-25T12:41:42;3.60;;;2.80;;
19189;SDS011;9727;50.200;19.038;2023-04-25T12:44:09;5.17;;;2.60;;
19189;SDS011;9727;50.200;19.038;2023-04-25T12:46:36;5.33;;;2.63;;
19189;SDS011;9727;50.200;19.038;2023-04-25T12:49:03;5.80;;;3.17;;
19189;SDS011;9727;50.200;19.038;2023-04-25T12:51:31;4.00;;;2.90;;
19189;SDS011;9727;50.200;19.038;2023-04-25T12:54:00;3.23;;;2.60;;
19189;SDS011;9727;50.200;19.038;2023-04-25T12:56:29;3.67;;;2.63;;
19189;SDS011;9727;50.200;19.038;2023-04-25T12:58:56;4.33;;;3.10;;
19189;SDS011;9727;50.200;19.038;2023-04-25T13:01:23;4.97;;;3.13;;
19189;SDS011;9727;50.200;19.038;2023-04-25T13:03:50;6.87;;;4.60;;
19189;SDS011;9727;50.200;19.038;2023-04-25T13:06:16;5.83;;;3.47;;
19189;SDS011;9727;50.200;19.038;2023-04-25T13:08:49;6.47;;;2.87;;
19189;SDS011;9727;50.200;19.038;2023-04-25T13:11:17;5.03;;;3.20;;
19189;SDS011;9727;50.200;19.038;2023-04-25T13:13:47;4.27;;;3.13;;
19189;SDS011;9727;50.200;19.038;2023-04-25T13:16:14;5.03;;;3.13;;
19189;SDS011;9727;50.200;19.038;2023-04-25T13:18:40;5.33;;;3.33;;
19189;SDS011;9727;50.200;19.038;2023-04-25T13:21:08;4.93;;;3.20;;
19189;SDS011;9727;50.200;19.038;2023-04-25T13:23:35;4.83;;;3.10;;
19189;SDS011;9727;50.200;19.038;2023-04-25T13:26:02;4.23;;;2.80;;
19189;SDS011;9727;50.200;19.038;2023-04-25T13:28:30;6.73;;;2.70;;
19189;SDS011;9727;50.200;19.038;2023-04-25T13:30:56;5.00;;;2.60;;
19189;SDS011;9727;50.200;19.038;2023-04-25T13:33:32;4.27;;;2.90;;
19189;SDS011;9727;50.200;19.038;2023-04-25T13:36:00;4.53;;;2.60;;
19189;SDS011;9727;50.200;19.038;2023-04-25T13:38:26;3.57;;;2.80;;
19189;SDS011;9727;50.200;19.038;2023-04-25T13:40:53;4.50;;;2.83;;
19189;SDS011;9727;50.200;19.038;2023-04-25T13:43:31;5.30;;;3.03;;
19189;SDS011;9727;50.200;19.038;2023-04-25T13:45:59;6.17;;;3.30;;
19189;SDS011;9727;50.200;19.038;2023-04-25T13:48:25;4.00;;;3.33;;
19189;SDS011;9727;50.200;19.038;2023-04-25T13:50:58;4.50;;;2.73;;
19189;SDS011;9727;50.200;19.038;2023-04-25T13:53:25;3.77;;;2.73;;
19189;SDS011;9727;50.200;19.038;2023-04-25T13:55:51;2.90;;;2.60;;
19189;SDS011;9727;50.200;19.038;2023-04-25T13:58:21;4.47;;;2.97;;
19189;SDS011;9727;50.200;19.038;2023-04-25T14:00:52;6.30;;;3.03;;
19189;SDS011;9727;50.200;19.038;2023-04-25T14:03:19;4.70;;;3.07;;
19189;SDS011;9727;50.200;19.038;2023-04-25T14:05:45;4.63;;;2.97;;
19189;SDS011;9727;50.200;19.038;2023-04-25T14:08:17;5.67;;;3.10;;
19189;SDS011;9727;50.200;19.038;2023-04-25T14:10:45;6.13;;;2.83;;
19189;SDS011;9727;50.200;19.038;2023-04-25T14:13:13;5.73;;;3.03;;
19189;SDS011;9727;50.200;19.038;2023-04-25T14:15:40;5.73;;;2.80;;
19189;SDS011;9727;50.200;19.038;2023-04-25T14:18:08;5.53;;;3.43;;
19189;SDS011;9727;50.200;19.038;2023-04-25T14:20:34;7.27;;;2.70;;
19189;SDS011;9727;50.200;19.038;2023-04-25T14:23:01;5.07;;;3.17;;
19189;SDS011;9727;50.200;19.038;2023-04-25T14:25:28;8.93;;;3.50;;
19189;SDS011;9727;50.200;19.038;2023-04-25T14:27:55;6.97;;;3.13;;
19189;SDS011;9727;50.200;19.038;2023-04-25T14:30:22;6.63;;;3.60;;
19189;SDS011;9727;50.200;19.038;2023-04-25T14:32:49;7.33;;;3.80;;
19189;SDS011;9727;50.200;19.038;2023-04-25T14:35:30;6.17;;;3.50;;
19189;SDS011;9727;50.200;19.038;2023-04-25T14:37:56;7.37;;;3.73;;
19189;SDS011;9727;50.200;19.038;2023-04-25T14:40:23;4.40;;;3.00;;
19189;SDS011;9727;50.200;19.038;2023-04-25T14:42:49;5.83;;;3.67;;
19189;SDS011;9727;50.200;19.038;2023-04-25T14:45:16;5.53;;;3.00;;
19189;SDS011;9727;50.200;19.038;2023-04-25T14:47:43;15.63;;;4.00;;
19189;SDS011;9727;50.200;19.038;2023-04-25T14:50:10;5.70;;;2.93;;
19189;SDS011;9727;50.200;19.038;2023-04-25T14:52:38;9.33;;;3.73;;
19189;SDS011;9727;50.200;19.038;2023-04-25T14:55:04;6.40;;;3.67;;
19189;SDS011;9727;50.200;19.038;2023-04-25T14:57:32;6.23;;;3.13;;